sensor_id;sensor_type;location;lat;lon;timestamp;temperature;humidity
71082;SHT31;58740;50.672;18.690;2023-10-19T00:00:04;6.53;70.98
71082;SHT31;58740;50.672;18.690;2023-10-19T00:03:09;6.52;70.79
71082;SHT31;58740;50.672;18.690;2023-10-19T00:05:43;6.47;70.67
71082;SHT31;58740;50.672;18.690;2023-10-19T00:08:17;6.43;70.93
71082;SHT31;58740;50.672;18.690;2023-10-19T00:10:50;6.45;71.14
71082;SHT31;58740;50.672;18.690;2023-10-19T00:13:32;6.47;71.08
71082;SHT31;58740;50.672;18.690;2023-10-19T00:16:07;6.47;71.01
71082;SHT31;58740;50.672;18.690;2023-10-19T00:18:46;6.49;71.06
71082;SHT31;58740;50.672;18.690;2023-10-19T00:21:21;6.48;70.89
71082;SHT31;58740;50.672;18.690;2023-10-19T00:23:56;6.46;70.97
71082;SHT31;58740;50.672;18.690;2023-10-19T00:26:33;6.43;71.00
71082;SHT31;58740;50.672;18.690;2023-10-19T00:29:09;6.46;71.08
71082;SHT31;58740;50.672;18.690;2023-10-19T00:31:59;6.46;71.06
71082;SHT31;58740;50.672;18.690;2023-10-19T00:34:32;6.47;71.22
71082;SHT31;58740;50.672;18.690;2023-10-19T00:37:07;6.48;70.86
71082;SHT31;58740;50.672;18.690;2023-10-19T00:39:47;6.47;71.05
71082;SHT31;58740;50.672;18.690;2023-10-19T00:42:23;6.49;71.15
71082;SHT31;58740;50.672;18.690;2023-10-19T00:45:00;6.51;71.07
71082;SHT31;58740;50.672;18.690;2023-10-19T00:47:35;6.51;70.91
71082;SHT31;58740;50.672;18.690;2023-10-19T00:50:10;6.52;71.10
71082;SHT31;58740;50.672;18.690;2023-10-19T00:52:46;6.53;71.04
71082;SHT31;58740;50.672;18.690;2023-10-19T00:55:19;6.53;70.97
71082;SHT31;58740;50.672;18.690;2023-10-19T00:57:55;6.53;71.01
71082;SHT31;58740;50.672;18.690;2023-10-19T01:00:32;6.55;71.13
71082;SHT31;58740;50.672;18.690;2023-10-19T01:03:12;6.55;70.74
71082;SHT31;58740;50.672;18.690;2023-10-19T01:05:46;6.52;70.86
71082;SHT31;58740;50.672;18.690;2023-10-19T01:08:20;6.51;70.96
71082;SHT31;58740;50.672;18.690;2023-10-19T01:10:55;6.52;70.98
71082;SHT31;58740;50.672;18.690;2023-10-19T01:13:29;6.50;70.92
71082;SHT31;58740;50.672;18.690;2023-10-19T01:16:04;6.50;70.96
71082;SHT31;58740;50.672;18.690;2023-10-19T01:18:50;6.50;70.89
71082;SHT31;58740;50.672;18.690;2023-10-19T01:21:24;6.50;71.10
71082;SHT31;58740;50.672;18.690;2023-10-19T01:24:07;6.52;70.90
71082;SHT31;58740;50.672;18.690;2023-10-19T01:26:45;6.50;71.06
71082;SHT31;58740;50.672;18.690;2023-10-19T01:29:19;6.51;70.97
71082;SHT31;58740;50.672;18.690;2023-10-19T01:31:56;6.50;71.02
71082;SHT31;58740;50.672;18.690;2023-10-19T01:34:37;6.50;71.23
71082;SHT31;58740;50.672;18.690;2023-10-19T01:37:10;6.53;71.14
71082;SHT31;58740;50.672;18.690;2023-10-19T01:39:43;6.50;70.95
71082;SHT31;58740;50.672;18.690;2023-10-19T01:42:17;6.48;71.08
71082;SHT31;58740;50.672;18.690;2023-10-19T01:44:50;6.46;70.90
71082;SHT31;58740;50.672;18.690;2023-10-19T01:47:23;6.43;71.03
71082;SHT31;58740;50.672;18.690;2023-10-19T01:49:57;6.38;70.96
71082;SHT31;58740;50.672;18.690;2023-10-19T01:52:34;6.33;71.31
71082;SHT31;58740;50.672;18.690;2023-10-19T01:55:08;6.36;71.30
71082;SHT31;58740;50.672;18.690;2023-10-19T01:57:42;6.34;71.18
71082;SHT31;58740;50.672;18.690;2023-10-19T02:00:15;6.31;71.31
71082;SHT31;58740;50.672;18.690;2023-10-19T02:02:52;6.33;71.61
71082;SHT31;58740;50.672;18.690;2023-10-19T02:05:28;6.36;71.33
71082;SHT31;58740;50.672;18.690;2023-10-19T02:08:08;6.38;71.61
71082;SHT31;58740;50.672;18.690;2023-10-19T02:10:41;6.39;71.41
71082;SHT31;58740;50.672;18.690;2023-10-19T02:13:19;6.39;71.37
71082;SHT31;58740;50.672;18.690;2023-10-19T02:15:52;6.39;71.37
71082;SHT31;58740;50.672;18.690;2023-10-19T02:18:26;6.38;71.30
71082;SHT31;58740;50.672;18.690;2023-10-19T02:20:59;6.38;71.57
71082;SHT31;58740;50.672;18.690;2023-10-19T02:23:35;6.39;71.44
71082;SHT31;58740;50.672;18.690;2023-10-19T02:26:10;6.40;71.42
71082;SHT31;58740;50.672;18.690;2023-10-19T02:28:44;6.38;71.42
71082;SHT31;58740;50.672;18.690;2023-10-19T02:31:19;6.38;71.55
71082;SHT31;58740;50.672;18.690;2023-10-19T02:33:54;6.39;71.54
71082;SHT31;58740;50.672;18.690;2023-10-19T02:36:29;6.39;71.54
71082;SHT31;58740;50.672;18.690;2023-10-19T02:39:06;6.37;71.24
71082;SHT31;58740;50.672;18.690;2023-10-19T02:41:43;6.32;71.41
71082;SHT31;58740;50.672;18.690;2023-10-19T02:44:19;6.29;71.38
71082;SHT31;58740;50.672;18.690;2023-10-19T02:46:54;6.28;71.51
71082;SHT31;58740;50.672;18.690;2023-10-19T02:49:29;6.29;71.63
71082;SHT31;58740;50.672;18.690;2023-10-19T02:52:07;6.31;71.56
71082;SHT31;58740;50.672;18.690;2023-10-19T02:54:45;6.29;71.58
71082;SHT31;58740;50.672;18.690;2023-10-19T02:57:18;6.27;71.81
71082;SHT31;58740;50.672;18.690;2023-10-19T02:59:51;6.29;71.99
71082;SHT31;58740;50.672;18.690;2023-10-19T03:02:25;6.32;71.77
71082;SHT31;58740;50.672;18.690;2023-10-19T03:04:59;6.33;71.85
71082;SHT31;58740;50.672;18.690;2023-10-19T03:07:39;6.34;71.72
71082;SHT31;58740;50.672;18.690;2023-10-19T03:10:13;6.33;71.77
71082;SHT31;58740;50.672;18.690;2023-10-19T03:12:53;6.34;71.65
71082;SHT31;58740;50.672;18.690;2023-10-19T03:15:26;6.30;71.88
71082;SHT31;58740;50.672;18.690;2023-10-19T03:18:02;6.29;71.73
71082;SHT31;58740;50.672;18.690;2023-10-19T03:20:37;6.28;71.77
71082;SHT31;58740;50.672;18.690;2023-10-19T03:23:10;6.27;71.76
71082;SHT31;58740;50.672;18.690;2023-10-19T03:25:43;6.24;71.80
71082;SHT31;58740;50.672;18.690;2023-10-19T03:28:48;6.24;71.93
71082;SHT31;58740;50.672;18.690;2023-10-19T03:31:24;6.24;72.11
71082;SHT31;58740;50.672;18.690;2023-10-19T03:33:57;6.25;72.00
71082;SHT31;58740;50.672;18.690;2023-10-19T03:36:34;6.24;72.00
71082;SHT31;58740;50.672;18.690;2023-10-19T03:39:08;6.20;71.97
71082;SHT31;58740;50.672;18.690;2023-10-19T03:41:42;6.20;72.30
71082;SHT31;58740;50.672;18.690;2023-10-19T03:44:16;6.23;72.18
71082;SHT31;58740;50.672;18.690;2023-10-19T03:46:53;6.22;71.92
71082;SHT31;58740;50.672;18.690;2023-10-19T03:49:30;6.18;72.13
71082;SHT31;58740;50.672;18.690;2023-10-19T03:52:06;6.19;72.21
71082;SHT31;58740;50.672;18.690;2023-10-19T03:54:51;6.19;72.29
71082;SHT31;58740;50.672;18.690;2023-10-19T03:57:26;6.19;72.06
71082;SHT31;58740;50.672;18.690;2023-10-19T03:59:59;6.14;72.21
71082;SHT31;58740;50.672;18.690;2023-10-19T04:02:39;6.15;72.46
71082;SHT31;58740;50.672;18.690;2023-10-19T04:05:13;6.19;72.33
71082;SHT31;58740;50.672;18.690;2023-10-19T04:07:49;6.20;72.26
71082;SHT31;58740;50.672;18.690;2023-10-19T04:10:24;6.20;72.30
71082;SHT31;58740;50.672;18.690;2023-10-19T04:13:08;6.19;72.26
71082;SHT31;58740;50.672;18.690;2023-10-19T04:15:42;6.19;72.34
71082;SHT31;58740;50.672;18.690;2023-10-19T04:18:19;6.18;72.09
71082;SHT31;58740;50.672;18.690;2023-10-19T04:20:54;6.16;72.19
71082;SHT31;58740;50.672;18.690;2023-10-19T04:23:27;6.16;72.21
71082;SHT31;58740;50.672;18.690;2023-10-19T04:26:04;6.16;72.14
71082;SHT31;58740;50.672;18.690;2023-10-19T04:28:41;6.15;72.27
71082;SHT31;58740;50.672;18.690;2023-10-19T04:31:19;6.12;72.24
71082;SHT31;58740;50.672;18.690;2023-10-19T04:33:53;6.10;72.35
71082;SHT31;58740;50.672;18.690;2023-10-19T04:36:26;6.11;72.48
71082;SHT31;58740;50.672;18.690;2023-10-19T04:38:59;6.13;72.52
71082;SHT31;58740;50.672;18.690;2023-10-19T04:41:33;6.16;72.58
71082;SHT31;58740;50.672;18.690;2023-10-19T04:44:06;6.18;72.59
71082;SHT31;58740;50.672;18.690;2023-10-19T04:46:40;6.18;72.42
71082;SHT31;58740;50.672;18.690;2023-10-19T04:49:14;6.16;72.54
71082;SHT31;58740;50.672;18.690;2023-10-19T04:51:47;6.16;72.61
71082;SHT31;58740;50.672;18.690;2023-10-19T04:54:20;6.18;72.81
71082;SHT31;58740;50.672;18.690;2023-10-19T04:56:54;6.22;72.74
71082;SHT31;58740;50.672;18.690;2023-10-19T04:59:29;6.25;72.70
71082;SHT31;58740;50.672;18.690;2023-10-19T05:02:02;6.27;72.70
71082;SHT31;58740;50.672;18.690;2023-10-19T05:04:35;6.30;72.74
71082;SHT31;58740;50.672;18.690;2023-10-19T05:07:10;6.32;72.78
71082;SHT31;58740;50.672;18.690;2023-10-19T05:09:45;6.37;72.72
71082;SHT31;58740;50.672;18.690;2023-10-19T05:12:19;6.39;72.67
71082;SHT31;58740;50.672;18.690;2023-10-19T05:14:52;6.42;72.64
71082;SHT31;58740;50.672;18.690;2023-10-19T05:17:25;6.43;72.65
71082;SHT31;58740;50.672;18.690;2023-10-19T05:19:58;6.46;72.63
71082;SHT31;58740;50.672;18.690;2023-10-19T05:22:34;6.47;72.56
71082;SHT31;58740;50.672;18.690;2023-10-19T05:25:08;6.49;72.56
71082;SHT31;58740;50.672;18.690;2023-10-19T05:27:41;6.52;72.50
71082;SHT31;58740;50.672;18.690;2023-10-19T05:30:15;6.54;72.49
71082;SHT31;58740;50.672;18.690;2023-10-19T05:32:52;6.55;72.50
71082;SHT31;58740;50.672;18.690;2023-10-19T05:35:25;6.58;72.55
71082;SHT31;58740;50.672;18.690;2023-10-19T05:38:04;6.57;72.43
71082;SHT31;58740;50.672;18.690;2023-10-19T05:40:37;6.55;72.43
71082;SHT31;58740;50.672;18.690;2023-10-19T05:43:12;6.55;72.40
71082;SHT31;58740;50.672;18.690;2023-10-19T05:45:46;6.55;72.40
71082;SHT31;58740;50.672;18.690;2023-10-19T05:48:20;6.56;72.37
71082;SHT31;58740;50.672;18.690;2023-10-19T05:50:54;6.55;72.39
71082;SHT31;58740;50.672;18.690;2023-10-19T05:53:30;6.55;72.39
71082;SHT31;58740;50.672;18.690;2023-10-19T05:56:04;6.54;72.38
71082;SHT31;58740;50.672;18.690;2023-10-19T05:58:37;6.55;72.43
71082;SHT31;58740;50.672;18.690;2023-10-19T06:01:11;6.56;72.40
71082;SHT31;58740;50.672;18.690;2023-10-19T06:03:44;6.57;72.44
71082;SHT31;58740;50.672;18.690;2023-10-19T06:06:18;6.58;72.48
71082;SHT31;58740;50.672;18.690;2023-10-19T06:08:51;6.61;72.50
71082;SHT31;58740;50.672;18.690;2023-10-19T06:11:25;6.62;72.49
71082;SHT31;58740;50.672;18.690;2023-10-19T06:14:06;6.63;72.43
71082;SHT31;58740;50.672;18.690;2023-10-19T06:16:39;6.64;72.24
71082;SHT31;58740;50.672;18.690;2023-10-19T06:19:12;6.65;72.23
71082;SHT31;58740;50.672;18.690;2023-10-19T06:21:46;6.67;72.16
71082;SHT31;58740;50.672;18.690;2023-10-19T06:24:21;6.68;72.08
71082;SHT31;58740;50.672;18.690;2023-10-19T06:26:54;6.70;72.11
71082;SHT31;58740;50.672;18.690;2023-10-19T06:29:28;6.72;72.15
71082;SHT31;58740;50.672;18.690;2023-10-19T06:32:01;6.73;72.24
71082;SHT31;58740;50.672;18.690;2023-10-19T06:34:34;6.72;72.25
71082;SHT31;58740;50.672;18.690;2023-10-19T06:37:08;6.74;72.31
71082;SHT31;58740;50.672;18.690;2023-10-19T06:39:41;6.76;72.33
71082;SHT31;58740;50.672;18.690;2023-10-19T06:42:15;6.78;72.38
71082;SHT31;58740;50.672;18.690;2023-10-19T06:44:48;6.79;72.36
71082;SHT31;58740;50.672;18.690;2023-10-19T06:47:25;6.80;72.40
71082;SHT31;58740;50.672;18.690;2023-10-19T06:49:59;6.83;72.51
71082;SHT31;58740;50.672;18.690;2023-10-19T06:52:34;6.85;72.50
71082;SHT31;58740;50.672;18.690;2023-10-19T06:55:08;6.86;72.52
71082;SHT31;58740;50.672;18.690;2023-10-19T06:57:43;6.88;72.47
71082;SHT31;58740;50.672;18.690;2023-10-19T07:00:19;6.91;72.39
71082;SHT31;58740;50.672;18.690;2023-10-19T07:02:56;6.93;72.31
71082;SHT31;58740;50.672;18.690;2023-10-19T07:05:31;6.97;72.30
71082;SHT31;58740;50.672;18.690;2023-10-19T07:08:05;7.01;72.27
71082;SHT31;58740;50.672;18.690;2023-10-19T07:10:39;7.04;72.14
71082;SHT31;58740;50.672;18.690;2023-10-19T07:13:13;7.07;72.18
71082;SHT31;58740;50.672;18.690;2023-10-19T07:15:46;7.11;72.18
71082;SHT31;58740;50.672;18.690;2023-10-19T07:18:20;7.13;72.12
71082;SHT31;58740;50.672;18.690;2023-10-19T07:20:54;7.16;72.10
71082;SHT31;58740;50.672;18.690;2023-10-19T07:23:32;7.19;72.05
71082;SHT31;58740;50.672;18.690;2023-10-19T07:26:07;7.22;72.01
71082;SHT31;58740;50.672;18.690;2023-10-19T07:28:43;7.25;72.00
71082;SHT31;58740;50.672;18.690;2023-10-19T07:31:17;7.28;71.91
71082;SHT31;58740;50.672;18.690;2023-10-19T07:33:50;7.32;71.91
71082;SHT31;58740;50.672;18.690;2023-10-19T07:36:26;7.37;71.82
71082;SHT31;58740;50.672;18.690;2023-10-19T07:39:00;7.41;71.64
71082;SHT31;58740;50.672;18.690;2023-10-19T07:41:33;7.44;71.58
71082;SHT31;58740;50.672;18.690;2023-10-19T07:44:06;7.47;71.55
71082;SHT31;58740;50.672;18.690;2023-10-19T07:46:40;7.51;71.50
71082;SHT31;58740;50.672;18.690;2023-10-19T07:49:14;7.54;71.51
71082;SHT31;58740;50.672;18.690;2023-10-19T07:51:48;7.57;71.52
71082;SHT31;58740;50.672;18.690;2023-10-19T07:54:23;7.60;71.50
71082;SHT31;58740;50.672;18.690;2023-10-19T07:56:57;7.63;71.53
71082;SHT31;58740;50.672;18.690;2023-10-19T07:59:34;7.65;71.48
71082;SHT31;58740;50.672;18.690;2023-10-19T08:02:08;7.67;71.43
71082;SHT31;58740;50.672;18.690;2023-10-19T08:04:42;7.69;71.31
71082;SHT31;58740;50.672;18.690;2023-10-19T08:07:16;7.70;71.13
71082;SHT31;58740;50.672;18.690;2023-10-19T08:09:49;7.71;71.10
71082;SHT31;58740;50.672;18.690;2023-10-19T08:12:23;7.74;70.97
71082;SHT31;58740;50.672;18.690;2023-10-19T08:14:56;7.75;70.96
71082;SHT31;58740;50.672;18.690;2023-10-19T08:17:31;7.78;70.86
71082;SHT31;58740;50.672;18.690;2023-10-19T08:20:04;7.79;70.69
71082;SHT31;58740;50.672;18.690;2023-10-19T08:22:45;7.80;70.82
71082;SHT31;58740;50.672;18.690;2023-10-19T08:25:19;7.83;70.75
71082;SHT31;58740;50.672;18.690;2023-10-19T08:27:54;7.85;70.76
71082;SHT31;58740;50.672;18.690;2023-10-19T08:30:27;7.87;70.73
71082;SHT31;58740;50.672;18.690;2023-10-19T08:33:02;7.91;70.77
71082;SHT31;58740;50.672;18.690;2023-10-19T08:35:36;7.94;70.70
71082;SHT31;58740;50.672;18.690;2023-10-19T08:38:09;7.97;70.68
71082;SHT31;58740;50.672;18.690;2023-10-19T08:40:42;8.00;70.65
71082;SHT31;58740;50.672;18.690;2023-10-19T08:43:16;8.03;71.00
71082;SHT31;58740;50.672;18.690;2023-10-19T08:45:50;8.05;71.40
71082;SHT31;58740;50.672;18.690;2023-10-19T08:48:25;8.07;71.49
71082;SHT31;58740;50.672;18.690;2023-10-19T08:51:03;8.09;71.79
71082;SHT31;58740;50.672;18.690;2023-10-19T08:53:40;8.10;72.20
71082;SHT31;58740;50.672;18.690;2023-10-19T08:56:15;8.10;72.19
71082;SHT31;58740;50.672;18.690;2023-10-19T08:58:52;8.12;72.38
71082;SHT31;58740;50.672;18.690;2023-10-19T09:01:26;8.14;72.86
71082;SHT31;58740;50.672;18.690;2023-10-19T09:04:01;8.14;73.03
71082;SHT31;58740;50.672;18.690;2023-10-19T09:06:35;8.15;73.18
71082;SHT31;58740;50.672;18.690;2023-10-19T09:09:11;8.13;73.47
71082;SHT31;58740;50.672;18.690;2023-10-19T09:11:48;8.13;73.52
71082;SHT31;58740;50.672;18.690;2023-10-19T09:14:32;8.15;73.71
71082;SHT31;58740;50.672;18.690;2023-10-19T09:17:10;8.15;73.83
71082;SHT31;58740;50.672;18.690;2023-10-19T09:19:44;8.15;74.07
71082;SHT31;58740;50.672;18.690;2023-10-19T09:22:18;8.15;74.17
71082;SHT31;58740;50.672;18.690;2023-10-19T09:24:52;8.16;74.39
71082;SHT31;58740;50.672;18.690;2023-10-19T09:27:26;8.18;74.56
71082;SHT31;58740;50.672;18.690;2023-10-19T09:30:00;8.18;74.55
71082;SHT31;58740;50.672;18.690;2023-10-19T09:32:38;8.19;74.61
71082;SHT31;58740;50.672;18.690;2023-10-19T09:35:12;8.19;74.84
71082;SHT31;58740;50.672;18.690;2023-10-19T09:37:48;8.20;74.82
71082;SHT31;58740;50.672;18.690;2023-10-19T09:40:23;8.22;75.26
71082;SHT31;58740;50.672;18.690;2023-10-19T09:42:58;8.21;75.45
71082;SHT31;58740;50.672;18.690;2023-10-19T09:45:39;8.19;75.63
71082;SHT31;58740;50.672;18.690;2023-10-19T09:48:20;8.20;75.95
71082;SHT31;58740;50.672;18.690;2023-10-19T09:50:55;8.21;76.30
71082;SHT31;58740;50.672;18.690;2023-10-19T09:53:29;8.24;76.56
71082;SHT31;58740;50.672;18.690;2023-10-19T09:56:03;8.28;76.68
71082;SHT31;58740;50.672;18.690;2023-10-19T09:58:46;8.30;76.93
71082;SHT31;58740;50.672;18.690;2023-10-19T10:01:24;8.33;76.80
71082;SHT31;58740;50.672;18.690;2023-10-19T10:03:59;8.35;77.07
71082;SHT31;58740;50.672;18.690;2023-10-19T10:09:38;8.38;77.24
71082;SHT31;58740;50.672;18.690;2023-10-19T10:12:17;8.39;77.59
71082;SHT31;58740;50.672;18.690;2023-10-19T10:14:59;8.42;77.78
71082;SHT31;58740;50.672;18.690;2023-10-19T10:17:38;8.45;77.91
71082;SHT31;58740;50.672;18.690;2023-10-19T10:23:17;8.48;77.99
71082;SHT31;58740;50.672;18.690;2023-10-19T10:25:55;8.49;78.36
71082;SHT31;58740;50.672;18.690;2023-10-19T10:28:30;8.52;78.52
71082;SHT31;58740;50.672;18.690;2023-10-19T10:31:14;8.55;78.57
71082;SHT31;58740;50.672;18.690;2023-10-19T10:33:52;8.56;78.76
71082;SHT31;58740;50.672;18.690;2023-10-19T10:36:26;8.59;78.80
71082;SHT31;58740;50.672;18.690;2023-10-19T10:39:31;8.64;78.87
71082;SHT31;58740;50.672;18.690;2023-10-19T10:42:06;8.68;79.12
71082;SHT31;58740;50.672;18.690;2023-10-19T10:44:41;8.70;79.06
71082;SHT31;58740;50.672;18.690;2023-10-19T10:47:17;8.71;79.02
71082;SHT31;58740;50.672;18.690;2023-10-19T10:49:54;8.74;79.09
71082;SHT31;58740;50.672;18.690;2023-10-19T10:52:29;8.77;79.23
71082;SHT31;58740;50.672;18.690;2023-10-19T10:55:09;8.80;79.41
71082;SHT31;58740;50.672;18.690;2023-10-19T10:57:44;8.83;79.42
71082;SHT31;58740;50.672;18.690;2023-10-19T11:00:20;8.85;79.56
71082;SHT31;58740;50.672;18.690;2023-10-19T11:03:01;8.88;79.52
71082;SHT31;58740;50.672;18.690;2023-10-19T11:05:38;8.90;79.57
71082;SHT31;58740;50.672;18.690;2023-10-19T11:08:15;8.91;79.45
71082;SHT31;58740;50.672;18.690;2023-10-19T11:10:50;8.93;79.36
71082;SHT31;58740;50.672;18.690;2023-10-19T11:13:23;8.93;79.48
71082;SHT31;58740;50.672;18.690;2023-10-19T11:15:57;8.97;79.38
71082;SHT31;58740;50.672;18.690;2023-10-19T11:18:35;9.01;79.43
71082;SHT31;58740;50.672;18.690;2023-10-19T11:21:10;9.04;79.64
71082;SHT31;58740;50.672;18.690;2023-10-19T11:23:45;9.06;79.59
71082;SHT31;58740;50.672;18.690;2023-10-19T11:26:22;9.09;79.59
71082;SHT31;58740;50.672;18.690;2023-10-19T11:28:59;9.10;79.66
71082;SHT31;58740;50.672;18.690;2023-10-19T11:31:34;9.12;79.80
71082;SHT31;58740;50.672;18.690;2023-10-19T11:34:08;9.13;79.83
71082;SHT31;58740;50.672;18.690;2023-10-19T11:36:47;9.13;80.02
71082;SHT31;58740;50.672;18.690;2023-10-19T11:39:28;9.13;80.11
71082;SHT31;58740;50.672;18.690;2023-10-19T11:42:02;9.11;80.26
71082;SHT31;58740;50.672;18.690;2023-10-19T11:44:36;9.12;80.22
71082;SHT31;58740;50.672;18.690;2023-10-19T11:47:09;9.12;80.36
71082;SHT31;58740;50.672;18.690;2023-10-19T11:49:43;9.13;80.47
71082;SHT31;58740;50.672;18.690;2023-10-19T11:52:17;9.13;80.59
71082;SHT31;58740;50.672;18.690;2023-10-19T11:54:51;9.14;80.69
71082;SHT31;58740;50.672;18.690;2023-10-19T11:57:25;9.14;80.77
71082;SHT31;58740;50.672;18.690;2023-10-19T12:00:02;9.15;80.85
71082;SHT31;58740;50.672;18.690;2023-10-19T12:02:38;9.15;80.91
71082;SHT31;58740;50.672;18.690;2023-10-19T12:05:12;9.14;81.05
71082;SHT31;58740;50.672;18.690;2023-10-19T12:07:46;9.13;81.12
71082;SHT31;58740;50.672;18.690;2023-10-19T12:10:21;9.14;81.09
71082;SHT31;58740;50.672;18.690;2023-10-19T12:13:02;9.14;81.06
71082;SHT31;58740;50.672;18.690;2023-10-19T12:15:37;9.14;81.29
71082;SHT31;58740;50.672;18.690;2023-10-19T12:18:10;9.13;81.15
71082;SHT31;58740;50.672;18.690;2023-10-19T12:20:43;9.15;81.39
71082;SHT31;58740;50.672;18.690;2023-10-19T12:23:17;9.14;81.63
71082;SHT31;58740;50.672;18.690;2023-10-19T12:25:52;9.14;81.66
71082;SHT31;58740;50.672;18.690;2023-10-19T12:28:26;9.15;81.75
71082;SHT31;58740;50.672;18.690;2023-10-19T12:30:59;9.15;81.75
71082;SHT31;58740;50.672;18.690;2023-10-19T12:33:34;9.16;81.65
71082;SHT31;58740;50.672;18.690;2023-10-19T12:36:10;9.18;81.56
71082;SHT31;58740;50.672;18.690;2023-10-19T12:39:00;9.21;81.64
71082;SHT31;58740;50.672;18.690;2023-10-19T12:41:38;9.23;81.68
71082;SHT31;58740;50.672;18.690;2023-10-19T12:44:11;9.24;81.78
71082;SHT31;58740;50.672;18.690;2023-10-19T12:46:45;9.25;81.74
71082;SHT31;58740;50.672;18.690;2023-10-19T12:49:18;9.26;81.73
71082;SHT31;58740;50.672;18.690;2023-10-19T12:51:54;9.27;81.74
71082;SHT31;58740;50.672;18.690;2023-10-19T12:54:29;9.28;81.78
71082;SHT31;58740;50.672;18.690;2023-10-19T12:57:03;9.28;81.82
71082;SHT31;58740;50.672;18.690;2023-10-19T12:59:38;9.30;81.87
71082;SHT31;58740;50.672;18.690;2023-10-19T13:02:12;9.31;82.12
71082;SHT31;58740;50.672;18.690;2023-10-19T13:04:47;9.30;82.13
71082;SHT31;58740;50.672;18.690;2023-10-19T13:07:20;9.31;82.23
71082;SHT31;58740;50.672;18.690;2023-10-19T13:09:55;9.30;82.52
71082;SHT31;58740;50.672;18.690;2023-10-19T13:12:28;9.27;82.80
71082;SHT31;58740;50.672;18.690;2023-10-19T13:15:01;9.26;82.92
71082;SHT31;58740;50.672;18.690;2023-10-19T13:17:42;9.25;83.09
71082;SHT31;58740;50.672;18.690;2023-10-19T13:20:17;9.24;83.07
71082;SHT31;58740;50.672;18.690;2023-10-19T13:22:52;9.24;83.11
71082;SHT31;58740;50.672;18.690;2023-10-19T13:25:26;9.25;83.14
71082;SHT31;58740;50.672;18.690;2023-10-19T13:28:11;9.26;83.12
71082;SHT31;58740;50.672;18.690;2023-10-19T13:30:47;9.27;83.16
71082;SHT31;58740;50.672;18.690;2023-10-19T13:33:23;9.29;83.05
71082;SHT31;58740;50.672;18.690;2023-10-19T13:35:57;9.31;83.17
71082;SHT31;58740;50.672;18.690;2023-10-19T13:38:31;9.31;83.22
71082;SHT31;58740;50.672;18.690;2023-10-19T13:41:05;9.33;83.15
71082;SHT31;58740;50.672;18.690;2023-10-19T13:43:40;9.34;83.18
71082;SHT31;58740;50.672;18.690;2023-10-19T13:46:14;9.36;83.28
71082;SHT31;58740;50.672;18.690;2023-10-19T13:48:47;9.36;83.29
71082;SHT31;58740;50.672;18.690;2023-10-19T13:51:20;9.35;83.40
71082;SHT31;58740;50.672;18.690;2023-10-19T13:53:54;9.36;83.46
71082;SHT31;58740;50.672;18.690;2023-10-19T13:56:27;9.36;83.46
71082;SHT31;58740;50.672;18.690;2023-10-19T13:59:01;9.36;83.46
71082;SHT31;58740;50.672;18.690;2023-10-19T14:01:36;9.38;83.50
71082;SHT31;58740;50.672;18.690;2023-10-19T14:04:10;9.39;83.48
71082;SHT31;58740;50.672;18.690;2023-10-19T14:06:44;9.39;83.51
71082;SHT31;58740;50.672;18.690;2023-10-19T14:09:18;9.41;83.60
71082;SHT31;58740;50.672;18.690;2023-10-19T14:11:52;9.42;83.54
71082;SHT31;58740;50.672;18.690;2023-10-19T14:14:25;9.42;83.68
71082;SHT31;58740;50.672;18.690;2023-10-19T14:17:00;9.43;83.70
71082;SHT31;58740;50.672;18.690;2023-10-19T14:19:38;9.41;83.76
71082;SHT31;58740;50.672;18.690;2023-10-19T14:22:14;9.43;83.75
71082;SHT31;58740;50.672;18.690;2023-10-19T14:24:48;9.44;83.79
71082;SHT31;58740;50.672;18.690;2023-10-19T14:27:23;9.43;83.71
71082;SHT31;58740;50.672;18.690;2023-10-19T14:29:57;9.44;83.79
71082;SHT31;58740;50.672;18.690;2023-10-19T14:32:30;9.46;83.76
71082;SHT31;58740;50.672;18.690;2023-10-19T14:35:05;9.47;83.70
71082;SHT31;58740;50.672;18.690;2023-10-19T14:37:40;9.48;83.74
71082;SHT31;58740;50.672;18.690;2023-10-19T14:40:17;9.49;83.65
71082;SHT31;58740;50.672;18.690;2023-10-19T14:42:53;9.50;83.68
71082;SHT31;58740;50.672;18.690;2023-10-19T14:45:27;9.51;83.72
71082;SHT31;58740;50.672;18.690;2023-10-19T14:48:01;9.50;83.81
71082;SHT31;58740;50.672;18.690;2023-10-19T14:50:37;9.49;83.90
71082;SHT31;58740;50.672;18.690;2023-10-19T14:53:12;9.48;84.03
71082;SHT31;58740;50.672;18.690;2023-10-19T14:55:46;9.47;84.04
71082;SHT31;58740;50.672;18.690;2023-10-19T14:58:20;9.47;84.07
71082;SHT31;58740;50.672;18.690;2023-10-19T15:00:54;9.49;84.09
71082;SHT31;58740;50.672;18.690;2023-10-19T15:03:27;9.49;84.17
71082;SHT31;58740;50.672;18.690;2023-10-19T15:06:01;9.49;84.19
71082;SHT31;58740;50.672;18.690;2023-10-19T15:08:35;9.50;84.30
71082;SHT31;58740;50.672;18.690;2023-10-19T15:11:09;9.49;84.38
71082;SHT31;58740;50.672;18.690;2023-10-19T15:13:46;9.48;84.48
71082;SHT31;58740;50.672;18.690;2023-10-19T15:16:20;9.48;84.53
71082;SHT31;58740;50.672;18.690;2023-10-19T15:18:53;9.49;84.49
71082;SHT31;58740;50.672;18.690;2023-10-19T15:21:26;9.50;84.41
71082;SHT31;58740;50.672;18.690;2023-10-19T15:24:00;9.51;84.49
71082;SHT31;58740;50.672;18.690;2023-10-19T15:26:35;9.51;84.49
71082;SHT31;58740;50.672;18.690;2023-10-19T15:29:08;9.52;84.46
71082;SHT31;58740;50.672;18.690;2023-10-19T15:31:41;9.53;84.54
71082;SHT31;58740;50.672;18.690;2023-10-19T15:34:15;9.55;84.46
71082;SHT31;58740;50.672;18.690;2023-10-19T15:36:49;9.55;84.49
71082;SHT31;58740;50.672;18.690;2023-10-19T15:39:22;9.55;84.46
71082;SHT31;58740;50.672;18.690;2023-10-19T15:41:56;9.55;84.52
71082;SHT31;58740;50.672;18.690;2023-10-19T15:44:29;9.54;84.62
71082;SHT31;58740;50.672;18.690;2023-10-19T15:47:03;9.54;84.72
71082;SHT31;58740;50.672;18.690;2023-10-19T15:49:45;9.52;84.74
71082;SHT31;58740;50.672;18.690;2023-10-19T15:52:22;9.51;84.73
71082;SHT31;58740;50.672;18.690;2023-10-19T15:54:57;9.50;84.76
71082;SHT31;58740;50.672;18.690;2023-10-19T15:57:30;9.50;84.83
71082;SHT31;58740;50.672;18.690;2023-10-19T16:00:05;9.49;84.90
71082;SHT31;58740;50.672;18.690;2023-10-19T16:02:43;9.47;84.93
71082;SHT31;58740;50.672;18.690;2023-10-19T16:05:17;9.46;84.95
71082;SHT31;58740;50.672;18.690;2023-10-19T16:07:51;9.47;85.05
71082;SHT31;58740;50.672;18.690;2023-10-19T16:10:24;9.46;84.98
71082;SHT31;58740;50.672;18.690;2023-10-19T16:12:57;9.47;85.10
71082;SHT31;58740;50.672;18.690;2023-10-19T16:15:30;9.47;85.10
71082;SHT31;58740;50.672;18.690;2023-10-19T16:18:05;9.48;85.04
71082;SHT31;58740;50.672;18.690;2023-10-19T16:20:40;9.48;85.07
71082;SHT31;58740;50.672;18.690;2023-10-19T16:23:13;9.48;85.17
71082;SHT31;58740;50.672;18.690;2023-10-19T16:25:47;9.49;85.17